Nearby METAR Reports

KBIS - Bismarck, North Dakota, USA
Distance from station: S 10mi, 15km
Updated: Wed, 05-Oct-2022 12:52pm CDT
Mostly cloudy
Mostly cloudy
 Wind from W
Wind: W 9 mph , 15 km/h
Temperature: 73°F , 23°C
Dew Point: 52°F , 11°C
Humidity: 47%
Barometer: 30.09 inHg , 1019 hPa
Clouds: Mostly cloudy
Visibility: 10 miles , 16 km
Cloud details: Mostly cloudy 10000 ft
2022/10/05 17:52 KBIS 051752Z 26008KT 10SM BKN100 23/11 A3009 RMK AO2 SLP189 T02280111 10233 20061 58009
KDIK - Dickinson, North Dakota, USA
Distance from station: W 95mi, 154km
Updated: Wed, 05-Oct-2022 12:56pm CDT
Few Clouds
Few Clouds
 Wind from WNW
Wind: WNW 17 mph , 28 km/h, Gust: 28 mph , 44 km/h
Temperature: 72°F , 22°C
Dew Point: 48°F , 9°C
Humidity: 44%
Barometer: 30.13 inHg , 1020.3 hPa
Clouds: Few Clouds
Visibility: 10 miles , 16 km
Cloud details: Few Clouds 7500 ft
2022/10/05 17:56 KDIK 051756Z AUTO 29015G24KT 10SM FEW075 22/09 A3013 RMK AO2 SLP198 T02220089 10228 20078 58000
 
KGFK - Grand Forks, North Dakota, USA
Distance from station: NNW 76mi, 123km
Updated: Wed, 05-Oct-2022 12:53pm CDT
Mostly cloudy
Mostly cloudy
 Wind from WNW
Wind: WNW 10 mph , 17 km/h
Temperature: 75°F , 24°C
Dew Point: 54°F , 12°C
Humidity: 47%
Barometer: 29.98 inHg , 1015.2 hPa
Clouds: Mostly cloudy
Visibility: 9 miles , 14 km
Cloud details: Partly cloudy 10000 ft
Mostly cloudy 25000 ft
2022/10/05 17:53 KGFK 051753Z 29009KT 9SM SCT100 BKN250 24/12 A2998 RMK AO2 SLP154 T02390117 10239 20072 58008
KXWA - Williston, North Dakota, USA
Distance from station: NNW 2mi, 2km
Updated: Wed, 05-Oct-2022 12:51pm CDT
Clear
Clear
 Wind from N
Wind: N 17 mph , 28 km/h
Temperature: 64°F , 18°C
Dew Point: 45°F , 7°C
Humidity: 49%
Barometer: 30.18 inHg , 1022 hPa
Clouds: Clear
Visibility: 10 miles , 16 km
2022/10/05 17:51 KXWA 051751Z AUTO 01015KT 10SM CLR 18/07 A3018 RMK AO2 SLP225 T01830072 10183 20106 51016
 
KFAR - Fargo, North Dakota, USA
Distance from station: NNW 4mi, 7km
Updated: Wed, 05-Oct-2022 12:53pm CDT
Clear
Clear
 Wind from W
Wind: W 6 mph , 9 km/h
Temperature: 72°F , 22°C
Dew Point: 54°F , 12°C
Humidity: 53%
Barometer: 30.02 inHg , 1016.6 hPa
Clouds: Clear
Visibility: 10 miles , 16 km
2022/10/05 17:53 KFAR 051753Z 28005KT 10SM CLR 22/12 A3002 RMK AO2 SLP167 T02170117 10217 20078 58004
KMOT - Minot, North Dakota, USA
Distance from station: E 109mi, 175km
Updated: Wed, 05-Oct-2022 12:54pm CDT
Few Clouds
Few Clouds
 Wind from NNW
Wind: NNW 12 mph , 19 km/h, Gust: 22 mph , 35 km/h
Temperature: 70°F , 21°C
Dew Point: 50°F , 10°C
Humidity: 50%
Barometer: 30.07 inHg , 1018.3 hPa
Clouds: Few Clouds
Visibility: 10 miles , 16 km
Cloud details: Few Clouds 8000 ft
2022/10/05 17:54 KMOT 051754Z 33010G19KT 10SM FEW080 21/10 A3007 RMK AO2 SLP184 T02110100 10217 20117 51010